sensor_id;sensor_type;location;lat;lon;timestamp;pressure;altitude;pressure_sealevel;temperature;humidity
27144;BME280;14672;50.250;8.312;2022-08-21T00:00:19;98942.13;;;18.59;56.47
27144;BME280;14672;50.250;8.312;2022-08-21T00:02:56;98951.53;;;18.54;56.74
27144;BME280;14672;50.250;8.312;2022-08-21T00:05:24;98944.34;;;18.44;56.86
27144;BME280;14672;50.250;8.312;2022-08-21T00:07:51;98944.25;;;18.59;56.49
27144;BME280;14672;50.250;8.312;2022-08-21T00:10:18;98940.97;;;18.46;56.76
27144;BME280;14672;50.250;8.312;2022-08-21T00:12:46;98941.47;;;18.44;56.66
27144;BME280;14672;50.250;8.312;2022-08-21T00:15:17;98945.13;;;18.39;56.78
27144;BME280;14672;50.250;8.312;2022-08-21T00:17:44;98939.81;;;18.32;56.86
27144;BME280;14672;50.250;8.312;2022-08-21T00:20:16;98942.69;;;18.32;57.08
27144;BME280;14672;50.250;8.312;2022-08-21T00:22:43;98937.94;;;18.29;56.84
27144;BME280;14672;50.250;8.312;2022-08-21T00:25:10;98943.44;;;18.27;56.51
27144;BME280;14672;50.250;8.312;2022-08-21T00:27:36;98940.69;;;18.12;56.86
27144;BME280;14672;50.250;8.312;2022-08-21T00:30:06;98928.13;;;18.10;56.88
27144;BME280;14672;50.250;8.312;2022-08-21T00:32:34;98936.19;;;18.06;57.40
27144;BME280;14672;50.250;8.312;2022-08-21T00:35:01;98937.00;;;18.12;57.36
27144;BME280;14672;50.250;8.312;2022-08-21T00:37:28;98943.00;;;18.08;57.02
27144;BME280;14672;50.250;8.312;2022-08-21T00:39:54;98941.69;;;18.09;57.48
27144;BME280;14672;50.250;8.312;2022-08-21T00:42:20;98933.13;;;18.15;57.51
27144;BME280;14672;50.250;8.312;2022-08-21T00:44:49;98941.44;;;18.07;57.43
27144;BME280;14672;50.250;8.312;2022-08-21T00:47:17;98938.00;;;18.03;57.48
27144;BME280;14672;50.250;8.312;2022-08-21T00:49:44;98932.69;;;17.96;58.37
27144;BME280;14672;50.250;8.312;2022-08-21T00:52:18;98931.41;;;17.97;57.92
27144;BME280;14672;50.250;8.312;2022-08-21T00:54:46;98930.59;;;17.97;57.65
27144;BME280;14672;50.250;8.312;2022-08-21T00:57:27;98941.28;;;17.91;57.68
27144;BME280;14672;50.250;8.312;2022-08-21T00:59:58;98939.06;;;17.80;58.19
27144;BME280;14672;50.250;8.312;2022-08-21T01:02:26;98943.84;;;17.89;57.99
27144;BME280;14672;50.250;8.312;2022-08-21T01:04:52;98938.50;;;17.76;57.91
27144;BME280;14672;50.250;8.312;2022-08-21T01:07:19;98949.81;;;17.85;58.09
27144;BME280;14672;50.250;8.312;2022-08-21T01:09:47;98946.88;;;17.79;58.03
27144;BME280;14672;50.250;8.312;2022-08-21T01:12:14;98943.47;;;17.75;58.05
27144;BME280;14672;50.250;8.312;2022-08-21T01:14:41;98945.81;;;17.77;58.43
27144;BME280;14672;50.250;8.312;2022-08-21T01:17:13;98950.28;;;17.78;58.15
27144;BME280;14672;50.250;8.312;2022-08-21T01:19:39;98946.75;;;17.68;58.54
27144;BME280;14672;50.250;8.312;2022-08-21T01:22:06;98948.28;;;17.64;59.11
27144;BME280;14672;50.250;8.312;2022-08-21T01:24:32;98941.19;;;17.59;58.99
27144;BME280;14672;50.250;8.312;2022-08-21T01:27:00;98944.91;;;17.65;58.78
27144;BME280;14672;50.250;8.312;2022-08-21T01:32:13;98940.91;;;17.57;58.43
27144;BME280;14672;50.250;8.312;2022-08-21T01:34:43;98944.19;;;17.50;58.62
27144;BME280;14672;50.250;8.312;2022-08-21T01:37:10;98953.75;;;17.42;58.82
27144;BME280;14672;50.250;8.312;2022-08-21T01:39:38;98951.09;;;17.38;58.72
27144;BME280;14672;50.250;8.312;2022-08-21T01:42:06;98954.75;;;17.38;58.82
27144;BME280;14672;50.250;8.312;2022-08-21T01:44:32;98952.38;;;17.37;58.71
27144;BME280;14672;50.250;8.312;2022-08-21T01:47:05;98950.31;;;17.37;59.17
27144;BME280;14672;50.250;8.312;2022-08-21T01:49:31;98942.91;;;17.31;59.33
27144;BME280;14672;50.250;8.312;2022-08-21T01:51:57;98949.25;;;17.35;59.34
27144;BME280;14672;50.250;8.312;2022-08-21T01:54:23;98943.72;;;17.31;59.39
27144;BME280;14672;50.250;8.312;2022-08-21T01:56:52;98932.84;;;17.21;59.83
27144;BME280;14672;50.250;8.312;2022-08-21T01:59:21;98940.75;;;17.26;59.81
27144;BME280;14672;50.250;8.312;2022-08-21T02:01:48;98931.44;;;17.31;59.45
27144;BME280;14672;50.250;8.312;2022-08-21T02:04:15;98934.44;;;17.22;60.15
27144;BME280;14672;50.250;8.312;2022-08-21T02:06:42;98931.22;;;17.14;60.20
27144;BME280;14672;50.250;8.312;2022-08-21T02:09:10;98934.44;;;17.02;60.32
27144;BME280;14672;50.250;8.312;2022-08-21T02:11:37;98929.06;;;17.09;59.99
27144;BME280;14672;50.250;8.312;2022-08-21T02:14:13;98932.72;;;17.10;59.67
27144;BME280;14672;50.250;8.312;2022-08-21T02:16:43;98931.94;;;17.09;60.01
27144;BME280;14672;50.250;8.312;2022-08-21T02:19:11;98930.66;;;17.10;60.11
27144;BME280;14672;50.250;8.312;2022-08-21T02:21:38;98924.41;;;17.12;60.41
27144;BME280;14672;50.250;8.312;2022-08-21T02:24:05;98927.19;;;17.06;60.34
27144;BME280;14672;50.250;8.312;2022-08-21T02:26:32;98925.41;;;17.09;59.58
27144;BME280;14672;50.250;8.312;2022-08-21T02:28:59;98916.50;;;17.07;60.04
27144;BME280;14672;50.250;8.312;2022-08-21T02:31:25;98918.59;;;17.06;59.69
27144;BME280;14672;50.250;8.312;2022-08-21T02:33:52;98926.25;;;16.95;60.07
27144;BME280;14672;50.250;8.312;2022-08-21T02:36:18;98926.25;;;16.95;60.27
27144;BME280;14672;50.250;8.312;2022-08-21T02:38:44;98928.56;;;16.90;60.45
27144;BME280;14672;50.250;8.312;2022-08-21T02:41:16;98928.03;;;16.92;60.53
27144;BME280;14672;50.250;8.312;2022-08-21T02:43:42;98918.66;;;16.92;60.58
27144;BME280;14672;50.250;8.312;2022-08-21T02:46:11;98925.09;;;16.86;60.53
27144;BME280;14672;50.250;8.312;2022-08-21T02:48:38;98925.69;;;16.90;60.93
27144;BME280;14672;50.250;8.312;2022-08-21T02:51:14;98919.72;;;16.94;60.52
27144;BME280;14672;50.250;8.312;2022-08-21T02:53:41;98923.25;;;16.83;60.43
27144;BME280;14672;50.250;8.312;2022-08-21T02:56:11;98921.56;;;16.77;61.32
27144;BME280;14672;50.250;8.312;2022-08-21T02:58:44;98924.53;;;16.82;60.81
27144;BME280;14672;50.250;8.312;2022-08-21T03:01:11;98920.50;;;16.74;61.27
27144;BME280;14672;50.250;8.312;2022-08-21T03:03:40;98930.25;;;16.82;60.53
27144;BME280;14672;50.250;8.312;2022-08-21T03:06:09;98928.81;;;16.72;60.67
27144;BME280;14672;50.250;8.312;2022-08-21T03:08:36;98926.66;;;16.67;60.67
27144;BME280;14672;50.250;8.312;2022-08-21T03:11:04;98922.09;;;16.61;60.88
27144;BME280;14672;50.250;8.312;2022-08-21T03:13:30;98929.44;;;16.62;60.62
27144;BME280;14672;50.250;8.312;2022-08-21T03:15:56;98922.63;;;16.59;60.15
27144;BME280;14672;50.250;8.312;2022-08-21T03:18:22;98917.56;;;16.54;60.40
27144;BME280;14672;50.250;8.312;2022-08-21T03:20:48;98917.25;;;16.52;60.54
27144;BME280;14672;50.250;8.312;2022-08-21T03:23:16;98919.25;;;16.61;60.18
27144;BME280;14672;50.250;8.312;2022-08-21T03:25:45;98924.72;;;16.44;60.96
27144;BME280;14672;50.250;8.312;2022-08-21T03:28:17;98916.50;;;16.52;61.04
27144;BME280;14672;50.250;8.312;2022-08-21T03:30:46;98911.94;;;16.45;60.51
27144;BME280;14672;50.250;8.312;2022-08-21T03:33:13;98908.00;;;16.42;60.77
27144;BME280;14672;50.250;8.312;2022-08-21T03:35:40;98913.72;;;16.42;60.79
27144;BME280;14672;50.250;8.312;2022-08-21T03:38:07;98915.91;;;16.33;60.76
27144;BME280;14672;50.250;8.312;2022-08-21T03:40:33;98915.72;;;16.36;60.82
27144;BME280;14672;50.250;8.312;2022-08-21T03:43:00;98913.84;;;16.33;61.20
27144;BME280;14672;50.250;8.312;2022-08-21T03:45:26;98915.31;;;16.29;61.14
27144;BME280;14672;50.250;8.312;2022-08-21T03:47:59;98914.94;;;16.21;61.60
27144;BME280;14672;50.250;8.312;2022-08-21T03:50:29;98921.06;;;16.29;61.22
27144;BME280;14672;50.250;8.312;2022-08-21T03:52:56;98916.06;;;16.24;61.13
27144;BME280;14672;50.250;8.312;2022-08-21T03:55:23;98910.69;;;16.17;60.41
27144;BME280;14672;50.250;8.312;2022-08-21T03:57:50;98913.66;;;16.22;60.92
27144;BME280;14672;50.250;8.312;2022-08-21T04:00:17;98908.84;;;16.14;61.06
27144;BME280;14672;50.250;8.312;2022-08-21T04:02:45;98922.16;;;16.17;61.07
27144;BME280;14672;50.250;8.312;2022-08-21T04:05:13;98928.41;;;16.15;60.99
27144;BME280;14672;50.250;8.312;2022-08-21T04:08:04;98925.03;;;16.17;61.21
27144;BME280;14672;50.250;8.312;2022-08-21T04:10:34;98928.63;;;16.12;61.46
27144;BME280;14672;50.250;8.312;2022-08-21T04:13:00;98938.59;;;16.02;61.65
27144;BME280;14672;50.250;8.312;2022-08-21T04:15:27;98944.63;;;16.04;61.66
27144;BME280;14672;50.250;8.312;2022-08-21T04:17:54;98938.31;;;16.00;62.20
27144;BME280;14672;50.250;8.312;2022-08-21T04:20:21;98950.84;;;16.02;61.95
27144;BME280;14672;50.250;8.312;2022-08-21T04:22:48;98949.16;;;16.10;62.20
27144;BME280;14672;50.250;8.312;2022-08-21T04:25:17;98949.16;;;16.10;61.96
27144;BME280;14672;50.250;8.312;2022-08-21T04:27:44;98960.81;;;16.07;61.77
27144;BME280;14672;50.250;8.312;2022-08-21T04:30:13;98951.53;;;16.12;62.50
27144;BME280;14672;50.250;8.312;2022-08-21T04:32:44;98956.69;;;16.08;62.83
27144;BME280;14672;50.250;8.312;2022-08-21T04:35:11;98966.25;;;16.05;62.56
27144;BME280;14672;50.250;8.312;2022-08-21T04:37:37;98969.13;;;16.05;62.33
27144;BME280;14672;50.250;8.312;2022-08-21T04:40:05;98969.72;;;16.09;62.68
27144;BME280;14672;50.250;8.312;2022-08-21T04:42:32;98959.84;;;16.10;62.47
27144;BME280;14672;50.250;8.312;2022-08-21T04:44:58;98971.97;;;16.05;62.37
27144;BME280;14672;50.250;8.312;2022-08-21T04:47:25;98969.44;;;16.07;62.75
27144;BME280;14672;50.250;8.312;2022-08-21T04:49:51;98980.28;;;16.03;62.82
27144;BME280;14672;50.250;8.312;2022-08-21T04:52:21;98966.75;;;16.03;63.10
27144;BME280;14672;50.250;8.312;2022-08-21T04:54:50;98977.22;;;16.06;62.50
27144;BME280;14672;50.250;8.312;2022-08-21T04:57:18;98973.88;;;16.08;62.71
27144;BME280;14672;50.250;8.312;2022-08-21T04:59:49;98971.97;;;16.05;62.59
27144;BME280;14672;50.250;8.312;2022-08-21T05:02:17;98973.38;;;16.09;62.79
27144;BME280;14672;50.250;8.312;2022-08-21T05:04:51;98970.69;;;16.06;62.82
27144;BME280;14672;50.250;8.312;2022-08-21T05:07:26;98970.50;;;16.09;63.02
27144;BME280;14672;50.250;8.312;2022-08-21T05:09:54;98972.56;;;16.09;62.78
27144;BME280;14672;50.250;8.312;2022-08-21T05:12:20;98968.94;;;16.08;62.57
27144;BME280;14672;50.250;8.312;2022-08-21T05:14:47;98981.88;;;16.04;63.00
27144;BME280;14672;50.250;8.312;2022-08-21T05:17:14;98985.63;;;16.10;62.62
27144;BME280;14672;50.250;8.312;2022-08-21T05:19:40;98991.69;;;16.12;62.59
27144;BME280;14672;50.250;8.312;2022-08-21T05:22:06;98979.81;;;16.19;62.95
27144;BME280;14672;50.250;8.312;2022-08-21T05:24:32;98990.59;;;16.24;62.72
27144;BME280;14672;50.250;8.312;2022-08-21T05:26:59;98987.13;;;16.20;63.29
27144;BME280;14672;50.250;8.312;2022-08-21T05:29:26;98981.00;;;16.27;63.39
27144;BME280;14672;50.250;8.312;2022-08-21T05:31:52;98982.06;;;16.29;63.48
27144;BME280;14672;50.250;8.312;2022-08-21T05:34:22;98987.91;;;16.35;63.83
27144;BME280;14672;50.250;8.312;2022-08-21T05:36:49;98988.78;;;16.41;63.82
27144;BME280;14672;50.250;8.312;2022-08-21T05:39:15;98981.16;;;16.53;63.90
27144;BME280;14672;50.250;8.312;2022-08-21T05:41:41;98976.59;;;16.61;64.13
27144;BME280;14672;50.250;8.312;2022-08-21T05:44:07;98979.09;;;16.68;64.41
27144;BME280;14672;50.250;8.312;2022-08-21T05:46:33;98981.75;;;16.71;64.56
27144;BME280;14672;50.250;8.312;2022-08-21T05:48:59;98977.88;;;16.74;64.77
27144;BME280;14672;50.250;8.312;2022-08-21T05:51:25;98980.13;;;16.85;64.60
27144;BME280;14672;50.250;8.312;2022-08-21T05:53:51;98986.22;;;16.92;64.56
27144;BME280;14672;50.250;8.312;2022-08-21T05:56:17;98985.88;;;17.05;64.54
27144;BME280;14672;50.250;8.312;2022-08-21T05:58:44;98979.44;;;17.10;64.85
27144;BME280;14672;50.250;8.312;2022-08-21T06:01:10;98984.47;;;17.15;65.10
27144;BME280;14672;50.250;8.312;2022-08-21T06:03:39;98981.44;;;17.24;65.10
27144;BME280;14672;50.250;8.312;2022-08-21T06:06:06;98973.28;;;17.37;64.97
27144;BME280;14672;50.250;8.312;2022-08-21T06:08:32;98973.94;;;17.47;64.84
27144;BME280;14672;50.250;8.312;2022-08-21T06:11:01;98977.44;;;17.57;65.13
27144;BME280;14672;50.250;8.312;2022-08-21T06:13:28;98980.97;;;17.66;64.76
27144;BME280;14672;50.250;8.312;2022-08-21T06:16:11;98982.38;;;17.76;64.84
27144;BME280;14672;50.250;8.312;2022-08-21T06:18:38;98976.00;;;17.87;64.72
27144;BME280;14672;50.250;8.312;2022-08-21T06:21:06;98984.94;;;17.95;64.79
27144;BME280;14672;50.250;8.312;2022-08-21T06:23:33;98977.72;;;18.05;64.46
27144;BME280;14672;50.250;8.312;2022-08-21T06:26:04;98978.84;;;18.13;64.52
27144;BME280;14672;50.250;8.312;2022-08-21T06:28:32;98970.31;;;18.24;64.24
27144;BME280;14672;50.250;8.312;2022-08-21T06:30:59;98969.91;;;18.37;63.79
27144;BME280;14672;50.250;8.312;2022-08-21T06:33:25;98976.28;;;18.46;63.57
27144;BME280;14672;50.250;8.312;2022-08-21T06:35:52;98965.69;;;18.58;63.80
27144;BME280;14672;50.250;8.312;2022-08-21T06:38:18;98962.34;;;18.65;64.22
27144;BME280;14672;50.250;8.312;2022-08-21T06:40:45;98963.19;;;18.76;63.65
27144;BME280;14672;50.250;8.312;2022-08-21T06:43:15;98959.34;;;18.85;63.57
27144;BME280;14672;50.250;8.312;2022-08-21T06:45:42;98958.06;;;18.92;63.98
27144;BME280;14672;50.250;8.312;2022-08-21T06:48:09;98961.28;;;19.05;63.49
27144;BME280;14672;50.250;8.312;2022-08-21T06:50:35;98966.56;;;19.12;63.11
27144;BME280;14672;50.250;8.312;2022-08-21T06:53:14;98962.44;;;19.24;63.00
27144;BME280;14672;50.250;8.312;2022-08-21T06:55:40;98953.59;;;19.33;62.98
27144;BME280;14672;50.250;8.312;2022-08-21T06:58:08;98952.56;;;19.42;62.46
27144;BME280;14672;50.250;8.312;2022-08-21T07:00:40;98955.53;;;19.53;62.28
27144;BME280;14672;50.250;8.312;2022-08-21T07:03:07;98962.88;;;19.59;61.68
27144;BME280;14672;50.250;8.312;2022-08-21T07:05:33;98959.50;;;19.72;61.22
27144;BME280;14672;50.250;8.312;2022-08-21T07:07:59;98967.41;;;19.83;60.58
27144;BME280;14672;50.250;8.312;2022-08-21T07:10:26;98959.84;;;19.96;60.11
27144;BME280;14672;50.250;8.312;2022-08-21T07:12:53;98965.38;;;20.05;59.78
27144;BME280;14672;50.250;8.312;2022-08-21T07:15:20;98967.22;;;20.20;57.84
27144;BME280;14672;50.250;8.312;2022-08-21T07:17:46;98972.25;;;20.30;56.38
27144;BME280;14672;50.250;8.312;2022-08-21T07:20:12;98968.84;;;20.43;55.95
27144;BME280;14672;50.250;8.312;2022-08-21T07:22:40;98965.44;;;20.50;55.94
27144;BME280;14672;50.250;8.312;2022-08-21T07:25:07;98957.03;;;20.57;56.01
27144;BME280;14672;50.250;8.312;2022-08-21T07:27:33;98961.50;;;20.64;56.04
27144;BME280;14672;50.250;8.312;2022-08-21T07:30:00;98960.97;;;20.77;55.64
27144;BME280;14672;50.250;8.312;2022-08-21T07:32:26;98960.41;;;20.84;54.99
27144;BME280;14672;50.250;8.312;2022-08-21T07:34:52;98959.38;;;20.92;54.83
27144;BME280;14672;50.250;8.312;2022-08-21T07:37:18;98951.22;;;21.02;54.43
27144;BME280;14672;50.250;8.312;2022-08-21T07:39:44;98950.41;;;21.13;54.19
27144;BME280;14672;50.250;8.312;2022-08-21T07:42:14;98945.94;;;21.17;54.03
27144;BME280;14672;50.250;8.312;2022-08-21T07:44:40;98948.28;;;21.19;54.09
27144;BME280;14672;50.250;8.312;2022-08-21T07:47:07;98940.63;;;21.32;53.78
27144;BME280;14672;50.250;8.312;2022-08-21T07:49:33;98935.09;;;21.40;53.57
27144;BME280;14672;50.250;8.312;2022-08-21T07:51:59;98936.88;;;21.48;53.56
27144;BME280;14672;50.250;8.312;2022-08-21T07:54:25;98940.81;;;21.51;53.20
27144;BME280;14672;50.250;8.312;2022-08-21T07:56:51;98933.94;;;21.60;53.32
27144;BME280;14672;50.250;8.312;2022-08-21T07:59:17;98929.69;;;21.66;52.63
27144;BME280;14672;50.250;8.312;2022-08-21T08:01:43;98937.53;;;21.77;52.68
27144;BME280;14672;50.250;8.312;2022-08-21T08:04:10;98928.56;;;21.80;52.86
27144;BME280;14672;50.250;8.312;2022-08-21T08:06:36;98930.38;;;21.89;53.17
27144;BME280;14672;50.250;8.312;2022-08-21T08:09:02;98919.03;;;21.96;52.49
27144;BME280;14672;50.250;8.312;2022-08-21T08:11:30;98923.16;;;22.07;52.12
27144;BME280;14672;50.250;8.312;2022-08-21T08:13:56;98917.06;;;22.16;52.64
27144;BME280;14672;50.250;8.312;2022-08-21T08:16:26;98915.94;;;22.24;52.61
27144;BME280;14672;50.250;8.312;2022-08-21T08:18:52;98913.78;;;22.30;51.57
27144;BME280;14672;50.250;8.312;2022-08-21T08:21:20;98908.47;;;22.34;51.22
27144;BME280;14672;50.250;8.312;2022-08-21T08:23:47;98911.56;;;22.42;51.30
27144;BME280;14672;50.250;8.312;2022-08-21T08:26:14;98916.00;;;22.48;51.07
27144;BME280;14672;50.250;8.312;2022-08-21T08:28:41;98918.31;;;22.56;51.68
27144;BME280;14672;50.250;8.312;2022-08-21T08:31:08;98916.63;;;22.66;51.04
27144;BME280;14672;50.250;8.312;2022-08-21T08:33:34;98913.66;;;22.77;51.38
27144;BME280;14672;50.250;8.312;2022-08-21T08:36:00;98917.28;;;22.83;50.97
27144;BME280;14672;50.250;8.312;2022-08-21T08:38:26;98906.97;;;22.87;50.36
27144;BME280;14672;50.250;8.312;2022-08-21T08:41:24;98905.03;;;22.96;50.28
27144;BME280;14672;50.250;8.312;2022-08-21T08:43:55;98901.56;;;22.97;50.33
27144;BME280;14672;50.250;8.312;2022-08-21T08:46:36;98894.41;;;23.04;49.79
27144;BME280;14672;50.250;8.312;2022-08-21T08:50:44;98894.31;;;23.09;49.59
27144;BME280;14672;50.250;8.312;2022-08-21T08:53:06;98897.13;;;23.20;49.28
27144;BME280;14672;50.250;8.312;2022-08-21T08:55:37;98900.50;;;23.24;49.21
27144;BME280;14672;50.250;8.312;2022-08-21T08:58:04;98904.66;;;23.29;48.15
27144;BME280;14672;50.250;8.312;2022-08-21T09:00:31;98894.84;;;23.32;47.59
27144;BME280;14672;50.250;8.312;2022-08-21T09:03:01;98897.66;;;23.37;47.06
27144;BME280;14672;50.250;8.312;2022-08-21T09:11:44;98894.53;;;23.60;45.07
27144;BME280;14672;50.250;8.312;2022-08-21T09:17:36;98892.16;;;23.77;46.32
27144;BME280;14672;50.250;8.312;2022-08-21T09:20:29;98889.97;;;23.83;45.39
27144;BME280;14672;50.250;8.312;2022-08-21T09:23:47;98882.97;;;23.92;46.00
27144;BME280;14672;50.250;8.312;2022-08-21T09:26:23;98878.66;;;23.98;46.92
27144;BME280;14672;50.250;8.312;2022-08-21T09:28:58;98881.47;;;24.04;46.56
27144;BME280;14672;50.250;8.312;2022-08-21T09:31:35;98882.72;;;24.08;46.60
27144;BME280;14672;50.250;8.312;2022-08-21T09:34:10;98879.56;;;24.06;46.22
27144;BME280;14672;50.250;8.312;2022-08-21T09:36:48;98874.88;;;24.22;47.59
27144;BME280;14672;50.250;8.312;2022-08-21T09:39:31;98875.00;;;24.29;46.78
27144;BME280;14672;50.250;8.312;2022-08-21T09:42:01;98874.59;;;24.39;46.78
27144;BME280;14672;50.250;8.312;2022-08-21T09:44:31;98881.53;;;24.49;46.14
27144;BME280;14672;50.250;8.312;2022-08-21T09:46:58;98867.72;;;24.55;45.60
27144;BME280;14672;50.250;8.312;2022-08-21T09:49:35;98864.38;;;24.64;45.81
27144;BME280;14672;50.250;8.312;2022-08-21T09:52:15;98865.28;;;24.72;45.67
27144;BME280;14672;50.250;8.312;2022-08-21T09:54:46;98861.91;;;24.81;45.72
27144;BME280;14672;50.250;8.312;2022-08-21T09:57:26;98852.81;;;24.90;45.59
27144;BME280;14672;50.250;8.312;2022-08-21T10:00:24;98852.91;;;24.98;44.74
27144;BME280;14672;50.250;8.312;2022-08-21T10:02:51;98852.69;;;25.09;44.84
27144;BME280;14672;50.250;8.312;2022-08-21T10:05:26;98837.50;;;25.16;44.14
27144;BME280;14672;50.250;8.312;2022-08-21T10:07:52;98837.78;;;25.25;43.12
27144;BME280;14672;50.250;8.312;2022-08-21T10:10:26;98833.75;;;25.42;44.26
27144;BME280;14672;50.250;8.312;2022-08-21T10:13:27;98826.13;;;25.52;44.15
27144;BME280;14672;50.250;8.312;2022-08-21T10:28:46;98826.34;;;25.67;41.42
27144;BME280;14672;50.250;8.312;2022-08-21T10:30:56;98824.09;;;25.60;41.08
27144;BME280;14672;50.250;8.312;2022-08-21T10:33:48;98825.41;;;25.72;40.70
27144;BME280;14672;50.250;8.312;2022-08-21T10:36:49;98824.66;;;25.92;41.59
27144;BME280;14672;50.250;8.312;2022-08-21T10:39:34;98810.41;;;26.02;41.82
27144;BME280;14672;50.250;8.312;2022-08-21T10:48:03;98813.97;;;26.29;41.19
27144;BME280;14672;50.250;8.312;2022-08-21T10:51:00;98790.19;;;26.38;41.17
27144;BME280;14672;50.250;8.312;2022-08-21T10:56:31;98786.13;;;26.69;40.80
27144;BME280;14672;50.250;8.312;2022-08-21T10:59:23;98796.13;;;26.81;40.23
27144;BME280;14672;50.250;8.312;2022-08-21T11:02:15;98789.41;;;26.86;39.48
27144;BME280;14672;50.250;8.312;2022-08-21T11:07:30;98784.06;;;27.05;39.57
27144;BME280;14672;50.250;8.312;2022-08-21T11:10:02;98786.34;;;26.99;38.72
27144;BME280;14672;50.250;8.312;2022-08-21T11:12:48;98780.59;;;27.15;38.12
27144;BME280;14672;50.250;8.312;2022-08-21T11:20:49;98785.06;;;27.51;38.18
27144;BME280;14672;50.250;8.312;2022-08-21T11:23:28;98773.22;;;27.65;37.92
27144;BME280;14672;50.250;8.312;2022-08-21T11:26:07;98776.94;;;27.73;38.09
27144;BME280;14672;50.250;8.312;2022-08-21T11:28:54;98779.72;;;27.86;37.94
27144;BME280;14672;50.250;8.312;2022-08-21T11:31:51;98773.47;;;27.89;37.68
27144;BME280;14672;50.250;8.312;2022-08-21T11:54:35;98752.28;;;28.65;36.36
27144;BME280;14672;50.250;8.312;2022-08-21T11:57:14;98748.56;;;28.64;36.14
27144;BME280;14672;50.250;8.312;2022-08-21T12:04:41;98736.22;;;29.04;35.14
27144;BME280;14672;50.250;8.312;2022-08-21T12:06:56;98744.16;;;29.18;34.55
27144;BME280;14672;50.250;8.312;2022-08-21T12:12:03;98744.16;;;29.26;34.56
27144;BME280;14672;50.250;8.312;2022-08-21T12:14:51;98728.69;;;29.41;32.96
27144;BME280;14672;50.250;8.312;2022-08-21T12:17:23;98724.28;;;29.57;32.24
27144;BME280;14672;50.250;8.312;2022-08-21T12:20:16;98728.97;;;29.60;33.12
27144;BME280;14672;50.250;8.312;2022-08-21T12:23:44;98734.81;;;29.60;31.76
27144;BME280;14672;50.250;8.312;2022-08-21T12:28:28;98728.63;;;29.80;32.92
27144;BME280;14672;50.250;8.312;2022-08-21T12:30:57;98735.28;;;29.81;32.81
27144;BME280;14672;50.250;8.312;2022-08-21T12:33:38;98723.84;;;30.00;31.77
27144;BME280;14672;50.250;8.312;2022-08-21T12:36:13;98728.31;;;30.01;32.55
27144;BME280;14672;50.250;8.312;2022-08-21T12:38:50;98738.47;;;30.00;33.02
27144;BME280;14672;50.250;8.312;2022-08-21T12:41:34;98735.50;;;30.08;32.46
27144;BME280;14672;50.250;8.312;2022-08-21T12:44:15;98734.72;;;30.07;31.30
27144;BME280;14672;50.250;8.312;2022-08-21T12:46:58;98736.38;;;30.18;30.38
27144;BME280;14672;50.250;8.312;2022-08-21T12:49:36;98736.84;;;30.31;30.94
27144;BME280;14672;50.250;8.312;2022-08-21T12:52:40;98732.28;;;30.21;29.55
27144;BME280;14672;50.250;8.312;2022-08-21T12:55:28;98730.06;;;30.29;30.15
27144;BME280;14672;50.250;8.312;2022-08-21T12:57:57;98722.75;;;30.38;31.09
27144;BME280;14672;50.250;8.312;2022-08-21T13:00:27;98729.09;;;30.51;30.96
27144;BME280;14672;50.250;8.312;2022-08-21T13:02:55;98731.22;;;30.51;30.82
27144;BME280;14672;50.250;8.312;2022-08-21T13:05:34;98722.88;;;30.47;31.47
27144;BME280;14672;50.250;8.312;2022-08-21T13:08:11;98713.41;;;30.56;31.17
27144;BME280;14672;50.250;8.312;2022-08-21T13:10:40;98706.50;;;30.61;30.04
27144;BME280;14672;50.250;8.312;2022-08-21T13:13:16;98707.34;;;30.54;29.42
27144;BME280;14672;50.250;8.312;2022-08-21T13:15:43;98702.38;;;30.64;29.30
27144;BME280;14672;50.250;8.312;2022-08-21T13:18:28;98703.94;;;30.65;29.66
27144;BME280;14672;50.250;8.312;2022-08-21T13:21:14;98708.56;;;30.86;29.97
27144;BME280;14672;50.250;8.312;2022-08-21T13:23:41;98694.44;;;30.92;29.68
27144;BME280;14672;50.250;8.312;2022-08-21T13:26:21;98695.22;;;30.92;30.45
27144;BME280;14672;50.250;8.312;2022-08-21T13:28:49;98692.81;;;30.81;30.72
27144;BME280;14672;50.250;8.312;2022-08-21T13:31:27;98686.75;;;30.79;31.63
27144;BME280;14672;50.250;8.312;2022-08-21T13:33:54;98689.97;;;31.08;29.57
27144;BME280;14672;50.250;8.312;2022-08-21T13:36:29;98688.31;;;31.14;29.82
27144;BME280;14672;50.250;8.312;2022-08-21T13:38:57;98682.09;;;31.10;30.07
27144;BME280;14672;50.250;8.312;2022-08-21T13:41:34;98687.03;;;31.08;28.69
27144;BME280;14672;50.250;8.312;2022-08-21T13:44:13;98686.00;;;31.13;28.73
27144;BME280;14672;50.250;8.312;2022-08-21T13:46:40;98685.25;;;31.22;29.00
27144;BME280;14672;50.250;8.312;2022-08-21T13:49:08;98685.09;;;31.20;28.22
27144;BME280;14672;50.250;8.312;2022-08-21T13:51:36;98683.66;;;31.38;28.99
27144;BME280;14672;50.250;8.312;2022-08-21T13:56:50;98676.50;;;31.76;28.08
27144;BME280;14672;50.250;8.312;2022-08-21T13:59:33;98670.94;;;31.80;29.00
27144;BME280;14672;50.250;8.312;2022-08-21T14:02:20;98673.31;;;31.91;28.53
27144;BME280;14672;50.250;8.312;2022-08-21T14:04:58;98675.94;;;31.87;29.04
27144;BME280;14672;50.250;8.312;2022-08-21T14:07:36;98681.22;;;31.98;28.10
27144;BME280;14672;50.250;8.312;2022-08-21T14:10:21;98661.28;;;32.06;27.58
27144;BME280;14672;50.250;8.312;2022-08-21T14:12:57;98670.34;;;32.18;27.86
27144;BME280;14672;50.250;8.312;2022-08-21T14:15:29;98663.72;;;32.27;28.06
27144;BME280;14672;50.250;8.312;2022-08-21T14:18:17;98669.94;;;32.40;27.54
27144;BME280;14672;50.250;8.312;2022-08-21T14:20:51;98660.06;;;32.55;27.25
27144;BME280;14672;50.250;8.312;2022-08-21T14:23:25;98665.16;;;32.54;26.90
27144;BME280;14672;50.250;8.312;2022-08-21T14:25:52;98659.63;;;32.68;27.21
27144;BME280;14672;50.250;8.312;2022-08-21T14:28:28;98658.38;;;32.62;27.84
27144;BME280;14672;50.250;8.312;2022-08-21T14:30:56;98654.22;;;32.65;26.22
27144;BME280;14672;50.250;8.312;2022-08-21T14:33:32;98644.28;;;32.70;26.05
27144;BME280;14672;50.250;8.312;2022-08-21T14:35:59;98659.94;;;32.72;27.26